Αρχική σελίδα
METAR-TAF:

METAR-TAF

Αεροδρόμια :

Evelyn Sharp Field

Ord, Νεμπράσκα, Ηνωμένες Πολιτείες Αμερικής

γεωγραφικό πλάτος: 41-37-27N, γεωγραφικό μήκος: 098-57-09W, υψόμετρο: 631 μ

Παρών καιρός

Η αναφορά έγινε 24 λεπτά πριν, στις 10:53 UTC
Άνεμος 5 kt από ΝA
Θερμοκρασία 19°C
Υγρασία 100%
Πίεση 1010 hPa
Ορατότητα: 2.0 χλμ
Νεφοσκεπής σε ύψος 200 πόδια
Αχλής

METAR: KODX 191053Z AUTO 14005KT 1 1/4SM BR OVC002 19/19 A2983 RMK AO2 SLP092 T01890189

Χρόνος: 06:17 (11:17 UTC)


TAF: λείπει

Μετεωρολογικές αναφορές και προγνώσεις για περισσότερα από 4000 αεροδρόμια (δελτία METAR και TAF).

Οι διαθέσιμοι σταθμοί απεικονίζονται στο χάρτη με κίτρινες και κόκκινες κουκκίδες.

Μετακινήστε το ποντίκι πάνω από τις κουκκίδες για να δείτε το όνομα του σταθμού.

Στη συνέχεια, κάντε κλικ για να δείτε τις μετεωρολογικές αναφορές και τις προγνώσεις καιρού.

Για να αλλάξετε το χάρτη: κάντε κλικ στα πράσινα κουμπιά με τον μαύρο σταυρό για να ζουμάρετε, στο πράσινο κουμπί με την παύλα για να αφαιρέσετε το ζουμ ή στα πράσινα βέλη για να αντιπαραβάλλετε χάρτες.


METAR-TAF: